createdAt,value
2017-08-08T00:00:24.818Z,16.8
2017-08-08T00:01:26.193Z,16.8
2017-08-08T00:02:27.573Z,17.0
2017-08-08T00:03:28.953Z,16.9
2017-08-08T00:04:30.337Z,16.9
2017-08-08T00:05:31.713Z,16.8
2017-08-08T00:06:33.096Z,16.8
2017-08-08T00:07:34.482Z,16.9
2017-08-08T00:08:35.864Z,17.0
2017-08-08T00:09:37.244Z,16.8
2017-08-08T00:10:38.626Z,16.9
2017-08-08T00:11:40.019Z,16.9
2017-08-08T00:12:41.466Z,17.0
2017-08-08T00:13:42.860Z,16.8
2017-08-08T00:14:44.286Z,16.9
2017-08-08T00:15:45.682Z,16.8
2017-08-08T00:16:47.083Z,16.8
2017-08-08T00:18:29.459Z,17.0
2017-08-08T00:19:30.848Z,17.0
2017-08-08T00:20:32.208Z,16.9
2017-08-08T00:21:33.592Z,16.9
2017-08-08T00:22:34.966Z,16.9
2017-08-08T00:23:36.365Z,16.9
2017-08-08T00:24:37.919Z,16.9
2017-08-08T00:25:39.509Z,16.9
2017-08-08T00:26:40.692Z,16.8
2017-08-08T00:27:42.071Z,16.8
2017-08-08T00:28:43.482Z,16.8
2017-08-08T00:29:45.019Z,16.8
2017-08-08T00:30:46.506Z,16.8
2017-08-08T00:31:47.945Z,16.8
2017-08-08T00:32:49.527Z,16.8
2017-08-08T00:33:51.635Z,16.8
2017-08-08T00:34:52.990Z,16.8
2017-08-08T00:35:54.412Z,16.8
2017-08-08T00:36:55.946Z,16.9
2017-08-08T00:37:57.742Z,16.8
2017-08-08T00:38:59.638Z,16.7
2017-08-08T00:40:01.097Z,16.7
2017-08-08T00:41:02.524Z,16.8
2017-08-08T00:42:03.909Z,16.7
2017-08-08T00:43:46.287Z,16.8
2017-08-08T00:44:47.658Z,16.8
2017-08-08T00:45:49.037Z,16.8
2017-08-08T00:46:50.416Z,16.8
2017-08-08T00:47:51.999Z,16.8
2017-08-08T00:48:53.375Z,16.7
2017-08-08T00:49:54.784Z,16.8
2017-08-08T00:50:56.242Z,16.8
2017-08-08T00:51:57.627Z,16.8
2017-08-08T00:52:59.018Z,16.8
2017-08-08T00:54:00.418Z,16.8
2017-08-08T00:55:02.492Z,16.8
2017-08-08T00:56:03.990Z,16.8
2017-08-08T00:57:05.468Z,16.8
2017-08-08T00:58:06.863Z,16.9
2017-08-08T00:59:08.256Z,16.8
2017-08-08T01:00:09.681Z,16.7
2017-08-08T01:01:11.097Z,16.8
2017-08-08T01:02:12.490Z,16.8
2017-08-08T01:03:13.867Z,16.8
2017-08-08T01:04:15.414Z,16.8
2017-08-08T01:05:16.917Z,16.9
2017-08-08T01:06:18.348Z,16.8
2017-08-08T01:07:19.751Z,16.8
2017-08-08T01:08:21.234Z,16.8
2017-08-08T01:09:22.721Z,16.7
2017-08-08T01:10:24.103Z,16.7
2017-08-08T01:11:25.660Z,16.7
2017-08-08T01:12:27.106Z,16.7
2017-08-08T01:13:28.534Z,16.8
2017-08-08T01:14:29.909Z,16.8
2017-08-08T01:15:31.379Z,16.7
2017-08-08T01:16:32.789Z,16.8
2017-08-08T01:17:34.217Z,16.7
2017-08-08T01:18:35.672Z,16.8
2017-08-08T01:19:37.051Z,16.7
2017-08-08T01:20:38.448Z,16.8
2017-08-08T01:21:39.883Z,16.7
2017-08-08T01:22:41.288Z,16.6
2017-08-08T01:23:42.676Z,16.7
2017-08-08T01:24:44.092Z,16.7
2017-08-08T01:25:45.528Z,16.6
2017-08-08T01:26:46.931Z,16.7
2017-08-08T01:27:48.318Z,16.6
2017-08-08T01:28:49.803Z,16.6
2017-08-08T01:29:51.285Z,16.7
2017-08-08T01:30:52.683Z,16.7
2017-08-08T01:31:54.773Z,16.5
2017-08-08T01:32:56.905Z,16.6
2017-08-08T01:33:58.331Z,16.5
2017-08-08T01:34:59.740Z,16.5
2017-08-08T01:36:01.127Z,16.4
2017-08-08T01:37:02.573Z,16.4
2017-08-08T01:38:03.941Z,16.3
2017-08-08T01:39:05.375Z,16.3
2017-08-08T01:40:06.838Z,16.3
2017-08-08T01:41:08.304Z,16.3
2017-08-08T01:42:09.693Z,16.2
2017-08-08T01:43:11.080Z,16.2
2017-08-08T01:44:12.539Z,16.3
2017-08-08T01:45:14.041Z,16.3
2017-08-08T01:46:15.455Z,16.3
2017-08-08T01:47:17.403Z,16.3
2017-08-08T01:48:18.834Z,16.2
2017-08-08T01:49:20.241Z,16.2
2017-08-08T01:50:21.690Z,16.2
2017-08-08T01:51:23.135Z,16.2
2017-08-08T01:52:24.546Z,16.2
2017-08-08T01:53:26.028Z,16.2
2017-08-08T01:54:27.461Z,16.2
2017-08-08T01:55:28.842Z,16.2
2017-08-08T01:56:30.288Z,16.2
2017-08-08T01:57:31.695Z,16.0
2017-08-08T01:58:33.171Z,16.1
2017-08-08T01:59:34.565Z,16.1
2017-08-08T02:00:35.986Z,16.1
2017-08-08T02:02:18.368Z,16.0
2017-08-08T02:03:19.745Z,16.1
2017-08-08T02:04:21.127Z,16.0
2017-08-08T02:05:22.496Z,16.1
2017-08-08T02:06:23.897Z,16.0
2017-08-08T02:07:25.264Z,16.0
2017-08-08T02:08:26.648Z,16.0
2017-08-08T02:09:28.068Z,16.0
2017-08-08T02:10:29.537Z,16.1
2017-08-08T02:12:11.936Z,16.0
2017-08-08T02:13:13.314Z,16.0
2017-08-08T02:14:14.717Z,16.1
2017-08-08T02:15:16.096Z,16.1
2017-08-08T02:16:17.555Z,16.0
2017-08-08T02:17:19.078Z,16.0
2017-08-08T02:18:20.441Z,16.0
2017-08-08T02:19:21.833Z,16.0
2017-08-08T02:20:23.201Z,16.0
2017-08-08T02:21:24.590Z,16.1
2017-08-08T02:22:26.034Z,16.0
2017-08-08T02:23:27.507Z,16.1
2017-08-08T02:24:28.927Z,16.0
2017-08-08T02:25:30.287Z,16.1
2017-08-08T02:26:31.669Z,15.9
2017-08-08T02:27:33.074Z,16.0
2017-08-08T02:28:34.535Z,16.0
2017-08-08T02:29:35.940Z,16.0
2017-08-08T02:30:37.345Z,16.0
2017-08-08T02:32:19.715Z,16.0
2017-08-08T02:33:21.102Z,16.0
2017-08-08T02:34:22.493Z,16.0
2017-08-08T02:35:23.986Z,16.0
2017-08-08T02:36:25.429Z,16.0
2017-08-08T02:37:26.883Z,16.0
2017-08-08T02:38:28.332Z,16.0
2017-08-08T02:39:29.732Z,16.0
2017-08-08T02:40:31.168Z,16.0
2017-08-08T02:41:32.549Z,16.1
2017-08-08T02:42:33.920Z,15.9
2017-08-08T02:43:35.335Z,16.0
2017-08-08T02:44:36.816Z,15.9
2017-08-08T02:45:38.304Z,15.9
2017-08-08T02:46:39.791Z,15.9
2017-08-08T02:47:41.180Z,15.9
2017-08-08T02:48:42.663Z,16.0
2017-08-08T02:49:44.081Z,15.9
2017-08-08T02:50:45.527Z,15.9
2017-08-08T02:51:46.934Z,15.9
2017-08-08T02:52:48.326Z,16.0
2017-08-08T02:54:30.696Z,15.9
2017-08-08T02:55:32.076Z,15.9
2017-08-08T02:56:33.712Z,15.9
2017-08-08T02:57:35.395Z,16.0
2017-08-08T02:58:37.255Z,16.0
2017-08-08T02:59:38.705Z,15.9
2017-08-08T03:00:40.126Z,16.0
2017-08-08T03:01:41.517Z,16.0
2017-08-08T03:02:42.951Z,16.1
2017-08-08T03:03:44.435Z,16.1
2017-08-08T03:04:45.820Z,15.9
2017-08-08T03:05:47.254Z,16.0
2017-08-08T03:07:29.639Z,16.1
2017-08-08T03:08:31.015Z,16.0
2017-08-08T03:09:32.419Z,16.0
2017-08-08T03:10:33.794Z,16.0
2017-08-08T03:11:35.194Z,16.0
2017-08-08T03:12:36.555Z,16.0
2017-08-08T03:13:37.933Z,16.0
2017-08-08T03:14:39.371Z,16.0
2017-08-08T03:15:40.780Z,16.0
2017-08-08T03:16:42.162Z,16.0
2017-08-08T03:17:43.555Z,16.0
2017-08-08T03:18:44.937Z,16.0
2017-08-08T03:19:46.365Z,16.0
2017-08-08T03:20:47.862Z,15.9
2017-08-08T03:21:49.282Z,16.0
2017-08-08T03:22:50.699Z,15.9
2017-08-08T03:23:52.080Z,15.9
2017-08-08T03:24:53.617Z,15.9
2017-08-08T03:25:55.041Z,16.0
2017-08-08T03:26:56.439Z,16.0
2017-08-08T03:27:57.819Z,15.9
2017-08-08T03:28:59.356Z,16.0
2017-08-08T03:30:00.723Z,15.9
2017-08-08T03:31:02.168Z,15.9
2017-08-08T03:32:03.562Z,15.8
2017-08-08T03:33:05.073Z,15.9
2017-08-08T03:34:06.506Z,15.8
2017-08-08T03:35:07.917Z,15.8
2017-08-08T03:36:09.328Z,15.9
2017-08-08T03:37:10.809Z,15.8
2017-08-08T03:38:12.195Z,15.8
2017-08-08T03:39:13.660Z,15.8
2017-08-08T03:40:15.123Z,15.8
2017-08-08T03:41:16.567Z,15.8
2017-08-08T03:42:17.993Z,15.9
2017-08-08T03:43:19.537Z,15.8
2017-08-08T03:44:20.926Z,15.9
2017-08-08T03:45:23.088Z,15.8
2017-08-08T03:46:24.554Z,15.8
2017-08-08T03:47:25.930Z,15.8
2017-08-08T03:48:27.365Z,15.8
2017-08-08T03:49:28.770Z,15.8
2017-08-08T03:50:30.153Z,15.9
2017-08-08T03:51:31.531Z,15.9
2017-08-08T03:52:33.626Z,15.8
2017-08-08T03:53:35.095Z,15.9
2017-08-08T03:54:36.492Z,15.9
2017-08-08T03:55:37.961Z,15.8
2017-08-08T03:56:39.383Z,15.8
2017-08-08T03:57:40.845Z,15.9
2017-08-08T03:59:23.212Z,15.8
2017-08-08T04:00:24.590Z,15.9
2017-08-08T04:01:25.976Z,15.8
2017-08-08T04:02:27.349Z,15.9
2017-08-08T04:04:09.761Z,16.0
2017-08-08T04:05:11.145Z,15.9
2017-08-08T04:06:12.532Z,15.9
2017-08-08T04:07:14.399Z,15.9
2017-08-08T04:08:16.073Z,15.9
2017-08-08T04:09:17.479Z,15.9
2017-08-08T04:10:18.929Z,15.9
2017-08-08T04:11:20.989Z,15.9
2017-08-08T04:12:22.381Z,16.0
2017-08-08T04:13:23.851Z,16.0
2017-08-08T04:14:25.263Z,16.0
2017-08-08T04:15:26.643Z,16.0
2017-08-08T04:17:09.180Z,16.0
2017-08-08T04:18:10.522Z,16.0
2017-08-08T04:19:11.903Z,16.0
2017-08-08T04:20:13.284Z,16.1
2017-08-08T04:21:14.668Z,16.1
2017-08-08T04:22:16.074Z,16.0
2017-08-08T04:23:17.478Z,16.1
2017-08-08T04:24:19.000Z,16.2
2017-08-08T04:25:20.390Z,16.2
2017-08-08T04:26:21.887Z,16.2
2017-08-08T04:27:23.275Z,16.3
2017-08-08T04:28:24.701Z,16.3
2017-08-08T04:29:26.096Z,16.4
2017-08-08T04:30:27.477Z,16.6
2017-08-08T04:32:09.864Z,16.6
2017-08-08T04:33:11.250Z,16.7
2017-08-08T04:34:12.697Z,16.7
2017-08-08T04:35:14.088Z,16.7
2017-08-08T04:36:15.474Z,16.6
2017-08-08T04:37:16.866Z,16.7
2017-08-08T04:38:18.301Z,16.6
2017-08-08T04:39:19.684Z,16.7
2017-08-08T04:41:02.060Z,16.8
2017-08-08T04:42:03.435Z,16.8
2017-08-08T04:43:04.830Z,16.7
2017-08-08T04:44:06.207Z,16.8
2017-08-08T04:45:07.595Z,16.8
2017-08-08T04:46:08.978Z,16.8
2017-08-08T04:47:10.455Z,16.8
2017-08-08T04:48:11.886Z,16.8
2017-08-08T04:49:13.373Z,16.8
2017-08-08T04:50:14.770Z,16.8
2017-08-08T04:51:16.170Z,16.8
2017-08-08T04:52:17.558Z,16.9
2017-08-08T04:53:19.046Z,16.8
2017-08-08T04:54:20.461Z,16.9
2017-08-08T04:55:21.890Z,16.9
2017-08-08T04:56:23.299Z,16.9
2017-08-08T04:57:24.899Z,16.9
2017-08-08T04:58:26.296Z,16.8
2017-08-08T04:59:27.683Z,16.8
2017-08-08T05:00:29.117Z,16.8
2017-08-08T05:01:30.502Z,16.9
2017-08-08T05:02:31.943Z,16.8
2017-08-08T05:03:33.409Z,16.8
2017-08-08T05:04:34.934Z,16.9
2017-08-08T05:05:36.331Z,16.9
2017-08-08T05:06:37.726Z,17.0
2017-08-08T05:07:39.130Z,16.9
2017-08-08T05:08:40.529Z,16.9
2017-08-08T05:09:41.931Z,16.9
2017-08-08T05:10:43.319Z,17.0
2017-08-08T05:11:44.790Z,17.0
2017-08-08T05:12:46.219Z,17.0
2017-08-08T05:13:47.696Z,17.0
2017-08-08T05:14:49.108Z,17.2
2017-08-08T05:15:50.498Z,17.2
2017-08-08T05:16:51.880Z,17.2
2017-08-08T05:17:53.263Z,17.2
2017-08-08T05:18:54.713Z,17.2
2017-08-08T05:19:56.186Z,17.2
2017-08-08T05:20:57.588Z,17.3
2017-08-08T05:21:58.987Z,17.2
2017-08-08T05:23:00.371Z,17.1
2017-08-08T05:24:01.775Z,17.1
2017-08-08T05:25:03.190Z,17.1
2017-08-08T05:26:04.615Z,17.2
2017-08-08T05:27:06.090Z,17.3
2017-08-08T05:28:07.494Z,17.3
2017-08-08T05:29:50.032Z,17.3
2017-08-08T05:30:51.600Z,17.4
2017-08-08T05:31:52.987Z,17.4
2017-08-08T05:32:54.385Z,17.4
2017-08-08T05:33:55.887Z,17.5
2017-08-08T05:34:57.280Z,17.6
2017-08-08T05:35:58.667Z,17.6
2017-08-08T05:37:00.136Z,17.7
2017-08-08T05:38:01.510Z,17.7
2017-08-08T05:39:02.913Z,17.8
2017-08-08T05:40:04.937Z,17.8
2017-08-08T05:41:06.386Z,17.8
2017-08-08T05:42:07.811Z,17.8
2017-08-08T05:43:09.227Z,17.9
2017-08-08T05:44:10.619Z,17.9
2017-08-08T05:45:12.003Z,17.9
2017-08-08T05:46:13.408Z,18.0
2017-08-08T05:47:14.826Z,17.9
2017-08-08T05:48:16.372Z,18.0
2017-08-08T05:49:17.817Z,18.0
2017-08-08T05:50:19.243Z,18.0
2017-08-08T05:51:20.751Z,18.1
2017-08-08T05:53:03.147Z,18.1
2017-08-08T05:54:04.532Z,18.3
2017-08-08T05:55:05.913Z,18.2
2017-08-08T05:56:07.299Z,18.4
2017-08-08T05:57:08.834Z,18.4
2017-08-08T05:58:10.212Z,18.5
2017-08-08T05:59:11.598Z,18.5
2017-08-08T06:00:12.988Z,18.5
2017-08-08T06:01:14.498Z,18.5
2017-08-08T06:02:15.959Z,18.6
2017-08-08T06:03:17.340Z,18.7
2017-08-08T06:04:18.729Z,18.7
2017-08-08T06:05:20.175Z,18.8
2017-08-08T06:06:21.594Z,18.6
2017-08-08T06:07:23.029Z,18.6
2017-08-08T06:08:24.585Z,18.7
2017-08-08T06:09:26.058Z,18.7
2017-08-08T06:10:27.474Z,18.7
2017-08-08T06:11:28.880Z,18.8
2017-08-08T06:12:30.283Z,18.8
2017-08-08T06:13:31.699Z,18.9
2017-08-08T06:15:15.114Z,18.9
2017-08-08T06:16:16.500Z,19.1
2017-08-08T06:17:17.881Z,19.2
2017-08-08T06:18:19.940Z,19.1
2017-08-08T06:19:21.309Z,19.2
2017-08-08T06:20:22.743Z,19.0
2017-08-08T06:21:24.134Z,19.2
2017-08-08T06:22:25.608Z,19.1
2017-08-08T06:23:27.012Z,19.2
2017-08-08T06:24:28.399Z,19.2
2017-08-08T06:25:30.019Z,19.3
2017-08-08T06:26:31.403Z,19.4
2017-08-08T06:27:32.789Z,19.6
2017-08-08T06:28:34.193Z,19.6
2017-08-08T06:29:35.588Z,19.7
2017-08-08T06:30:37.593Z,19.8
2017-08-08T06:31:39.063Z,19.9
2017-08-08T06:32:40.456Z,20.2
2017-08-08T06:33:41.843Z,20.3
2017-08-08T06:34:43.286Z,20.6
2017-08-08T06:35:44.832Z,20.7
2017-08-08T06:36:46.229Z,20.9
2017-08-08T06:37:47.663Z,20.9
2017-08-08T06:38:49.074Z,21.1
2017-08-08T06:39:50.484Z,21.2
2017-08-08T06:40:51.902Z,21.4
2017-08-08T06:41:53.291Z,21.5
2017-08-08T06:42:54.713Z,21.8
2017-08-08T06:43:56.111Z,21.6
2017-08-08T06:44:57.496Z,21.8
2017-08-08T06:45:58.889Z,22.0
2017-08-08T06:47:00.286Z,22.1
2017-08-08T06:48:01.669Z,22.3
2017-08-08T06:49:03.075Z,22.2
2017-08-08T06:50:04.477Z,22.3
2017-08-08T06:51:05.915Z,22.3
2017-08-08T06:52:07.345Z,22.3
2017-08-08T06:53:08.733Z,22.6
2017-08-08T06:54:10.142Z,22.7
2017-08-08T06:55:11.538Z,22.8
2017-08-08T06:56:12.929Z,22.9
2017-08-08T06:57:14.361Z,23.0
2017-08-08T06:58:15.759Z,23.0
2017-08-08T06:59:17.264Z,23.1
2017-08-08T07:00:18.685Z,23.2
2017-08-08T07:01:20.087Z,23.2
2017-08-08T07:02:21.484Z,23.3
2017-08-08T07:03:22.893Z,23.3
2017-08-08T07:04:24.303Z,23.4
2017-08-08T07:05:25.723Z,23.6
2017-08-08T07:06:27.140Z,23.6
2017-08-08T07:07:28.546Z,23.8
2017-08-08T07:08:30.067Z,23.9
2017-08-08T07:09:31.462Z,23.9
2017-08-08T07:10:32.861Z,24.0
2017-08-08T07:11:34.276Z,24.1
2017-08-08T07:12:35.687Z,24.1
2017-08-08T07:13:37.117Z,24.2
2017-08-08T07:14:38.510Z,24.3
2017-08-08T07:15:39.975Z,24.3
2017-08-08T07:16:41.375Z,24.4
2017-08-08T07:17:44.377Z,24.4
2017-08-08T07:19:26.722Z,24.6
2017-08-08T07:20:28.111Z,24.8
2017-08-08T07:21:29.501Z,24.8
2017-08-08T07:22:30.894Z,24.8
2017-08-08T07:23:32.295Z,25.0
2017-08-08T07:24:33.677Z,25.0
2017-08-08T07:26:16.072Z,25.0
2017-08-08T07:27:17.459Z,25.0
2017-08-08T07:28:18.871Z,25.0
2017-08-08T07:29:20.245Z,25.0
2017-08-08T07:30:21.637Z,24.9
2017-08-08T07:31:23.033Z,24.8
2017-08-08T07:32:24.420Z,24.9
2017-08-08T07:33:25.817Z,25.0
2017-08-08T07:34:27.206Z,25.0
2017-08-08T07:35:28.597Z,24.8
2017-08-08T07:36:29.987Z,24.8
2017-08-08T07:37:31.380Z,24.8
2017-08-08T07:38:32.774Z,24.8
2017-08-08T07:39:34.163Z,24.8
2017-08-08T07:40:35.561Z,24.8
2017-08-08T07:41:36.951Z,24.9
2017-08-08T07:42:38.342Z,24.8
2017-08-08T07:43:39.741Z,24.8
2017-08-08T07:44:41.131Z,24.8
2017-08-08T07:45:42.519Z,24.7
2017-08-08T07:46:43.915Z,24.7
2017-08-08T07:47:45.307Z,24.6
2017-08-08T07:49:27.718Z,24.6
2017-08-08T07:50:29.108Z,24.5
2017-08-08T07:51:30.501Z,24.4
2017-08-08T07:52:31.890Z,24.6
2017-08-08T07:53:35.168Z,24.6
2017-08-08T07:54:37.563Z,24.4
2017-08-08T07:55:39.805Z,24.4
2017-08-08T07:56:41.965Z,24.5
2017-08-08T07:57:43.370Z,24.4
2017-08-08T07:58:44.961Z,24.6
2017-08-08T07:59:46.509Z,24.5
2017-08-08T08:00:47.902Z,24.5
2017-08-08T08:01:49.331Z,24.6
2017-08-08T08:02:51.470Z,24.6
2017-08-08T08:03:53.579Z,24.6
2017-08-08T08:04:55.515Z,24.4
2017-08-08T08:05:56.958Z,24.5
2017-08-08T08:06:58.353Z,24.4
2017-08-08T08:07:59.959Z,24.3
2017-08-08T08:09:01.417Z,24.4
2017-08-08T08:10:02.880Z,24.3
2017-08-08T08:11:04.353Z,24.4
2017-08-08T08:12:05.834Z,24.4
2017-08-08T08:13:07.388Z,24.5
2017-08-08T08:14:08.780Z,24.3
2017-08-08T08:15:51.174Z,24.2
2017-08-08T08:16:52.562Z,24.1
2017-08-08T08:17:53.952Z,24.1
2017-08-08T08:18:55.459Z,24.2
2017-08-08T08:19:56.837Z,24.3
2017-08-08T08:20:58.232Z,24.3
2017-08-08T08:21:59.623Z,24.4
2017-08-08T08:23:01.400Z,24.5
2017-08-08T08:24:02.795Z,24.5
2017-08-08T08:25:04.185Z,24.6
2017-08-08T08:26:05.685Z,24.7
2017-08-08T08:27:07.117Z,24.8
2017-08-08T08:28:08.560Z,24.8
2017-08-08T08:29:10.156Z,24.9
2017-08-08T08:30:11.587Z,24.9
2017-08-08T08:31:13.673Z,24.9
2017-08-08T08:32:15.197Z,24.9
2017-08-08T08:33:16.587Z,24.8
2017-08-08T08:34:17.987Z,24.9
2017-08-08T08:35:19.378Z,25.0
2017-08-08T08:36:21.233Z,25.2
2017-08-08T08:37:22.668Z,25.2
2017-08-08T08:38:24.092Z,25.3
2017-08-08T08:39:25.587Z,25.3
2017-08-08T08:40:27.016Z,25.2
2017-08-08T08:41:28.415Z,25.2
2017-08-08T08:42:29.850Z,25.3
2017-08-08T08:43:31.767Z,25.2
2017-08-08T08:44:33.851Z,25.2
2017-08-08T08:45:35.329Z,25.1
2017-08-08T08:46:36.718Z,25.2
2017-08-08T08:47:38.118Z,25.2
2017-08-08T08:48:39.530Z,25.2
2017-08-08T08:49:40.985Z,25.2
2017-08-08T08:50:42.403Z,25.1
2017-08-08T08:51:43.801Z,25.2
2017-08-08T08:52:45.216Z,25.2
2017-08-08T08:53:46.602Z,25.2
2017-08-08T08:54:48.088Z,25.3
2017-08-08T08:55:49.532Z,25.2
2017-08-08T08:56:50.991Z,25.3
2017-08-08T08:57:52.403Z,25.3
2017-08-08T08:58:53.813Z,25.2
2017-08-08T08:59:55.363Z,25.4
2017-08-08T09:00:56.933Z,25.3
2017-08-08T09:02:39.304Z,25.4
2017-08-08T09:03:41.083Z,25.4
2017-08-08T09:04:42.469Z,25.5
2017-08-08T09:05:43.858Z,25.5
2017-08-08T09:06:45.252Z,25.5
2017-08-08T09:07:46.642Z,25.6
2017-08-08T09:08:48.091Z,25.7
2017-08-08T09:09:49.474Z,25.8
2017-08-08T09:10:50.861Z,25.9
2017-08-08T09:11:52.252Z,25.9
2017-08-08T09:12:53.641Z,26.0
2017-08-08T09:13:55.147Z,26.0
2017-08-08T09:14:56.537Z,26.1
2017-08-08T09:15:57.931Z,25.9
2017-08-08T09:16:59.330Z,26.0
2017-08-08T09:18:00.889Z,25.8
2017-08-08T09:19:02.288Z,25.8
2017-08-08T09:20:03.677Z,25.8
2017-08-08T09:21:05.116Z,25.9
2017-08-08T09:22:06.508Z,25.8
2017-08-08T09:23:07.938Z,25.8
2017-08-08T09:24:09.624Z,25.8
2017-08-08T09:25:11.018Z,25.9
2017-08-08T09:26:12.537Z,26.1
2017-08-08T09:27:14.908Z,26.1
2017-08-08T09:28:16.957Z,26.1
2017-08-08T09:29:18.606Z,26.2
2017-08-08T09:31:01.989Z,26.3
2017-08-08T09:32:03.382Z,26.4
2017-08-08T09:33:04.765Z,26.4
2017-08-08T09:34:06.164Z,26.2
2017-08-08T09:35:07.557Z,26.2
2017-08-08T09:36:09.063Z,26.1
2017-08-08T09:37:10.438Z,26.1
2017-08-08T09:38:11.834Z,26.0
2017-08-08T09:39:13.274Z,26.0
2017-08-08T09:40:14.948Z,26.2
2017-08-08T09:41:16.342Z,26.1
2017-08-08T09:42:17.739Z,26.2
2017-08-08T09:43:19.126Z,26.2
2017-08-08T09:44:20.527Z,26.4
2017-08-08T09:45:21.936Z,26.3
2017-08-08T09:47:04.325Z,26.1
2017-08-08T09:48:05.715Z,26.1
2017-08-08T09:49:07.164Z,26.1
2017-08-08T09:50:08.560Z,25.9
2017-08-08T09:51:10.359Z,25.8
2017-08-08T09:52:11.752Z,25.7
2017-08-08T09:53:13.144Z,25.8
2017-08-08T09:54:14.604Z,25.8
2017-08-08T09:55:15.996Z,25.8
2017-08-08T09:56:17.396Z,25.9
2017-08-08T09:57:18.813Z,25.9
2017-08-08T09:58:20.197Z,25.9
2017-08-08T09:59:21.590Z,25.9
2017-08-08T10:00:22.982Z,26.0
2017-08-08T10:01:24.467Z,26.1
2017-08-08T10:02:25.871Z,26.1
2017-08-08T10:03:27.365Z,26.1
2017-08-08T10:05:10.004Z,26.2
2017-08-08T10:06:11.397Z,26.3
2017-08-08T10:07:12.786Z,26.4
2017-08-08T10:08:14.724Z,26.2
2017-08-08T10:09:16.108Z,26.3
2017-08-08T10:10:17.500Z,26.4
2017-08-08T10:11:19.014Z,26.5
2017-08-08T10:12:20.414Z,26.6
2017-08-08T10:13:21.809Z,26.6
2017-08-08T10:14:23.214Z,26.5
2017-08-08T10:15:24.605Z,26.6
2017-08-08T10:16:26.034Z,26.5
2017-08-08T10:17:27.456Z,26.5
2017-08-08T10:18:29.474Z,26.5
2017-08-08T10:19:30.938Z,26.4
2017-08-08T10:20:32.349Z,26.5
2017-08-08T10:21:33.745Z,26.3
2017-08-08T10:22:35.170Z,26.4
2017-08-08T10:23:36.566Z,26.5
2017-08-08T10:24:37.976Z,26.4
2017-08-08T10:25:39.402Z,26.3
2017-08-08T10:26:40.815Z,26.5
2017-08-08T10:27:42.209Z,26.4
2017-08-08T10:28:43.598Z,26.3
2017-08-08T10:29:45.014Z,26.2
2017-08-08T10:30:46.671Z,26.4
2017-08-08T10:31:48.128Z,26.3
2017-08-08T10:32:49.568Z,26.4
2017-08-08T10:33:50.998Z,26.3
2017-08-08T10:34:52.416Z,26.2
2017-08-08T10:35:53.857Z,26.2
2017-08-08T10:36:55.306Z,26.1
2017-08-08T10:37:56.698Z,26.1
2017-08-08T10:38:58.091Z,26.1
2017-08-08T10:39:59.485Z,26.0
2017-08-08T10:41:00.988Z,26.0
2017-08-08T10:42:02.498Z,25.9
2017-08-08T10:43:43.891Z,25.8
2017-08-08T10:44:45.372Z,25.6
2017-08-08T10:46:08.380Z,25.5
2017-08-08T10:47:09.773Z,25.5
2017-08-08T10:48:11.164Z,25.5
2017-08-08T10:49:12.560Z,25.5
2017-08-08T10:50:13.944Z,25.3
2017-08-08T10:51:15.335Z,25.2
2017-08-08T10:52:16.893Z,25.2
2017-08-08T10:53:18.262Z,25.1
2017-08-08T10:54:19.651Z,25.0
2017-08-08T10:55:21.039Z,25.0
2017-08-08T10:56:22.428Z,24.9
2017-08-08T10:57:23.821Z,24.8
2017-08-08T10:58:25.222Z,24.7
2017-08-08T10:59:26.606Z,24.4
2017-08-08T11:00:28.002Z,24.5
2017-08-08T11:01:29.391Z,24.2
2017-08-08T11:02:30.822Z,24.1
2017-08-08T11:04:13.215Z,24.1
2017-08-08T11:05:14.617Z,23.9
2017-08-08T11:06:15.997Z,23.9
2017-08-08T11:07:17.394Z,23.7
2017-08-08T11:08:18.826Z,23.5
2017-08-08T11:09:20.197Z,23.5
2017-08-08T11:10:21.594Z,23.4
2017-08-08T11:11:23.013Z,23.5
2017-08-08T11:12:24.414Z,23.5
2017-08-08T11:13:25.812Z,23.5
2017-08-08T11:14:27.401Z,23.4
2017-08-08T11:16:09.793Z,23.2
2017-08-08T11:17:11.181Z,23.2
2017-08-08T11:18:12.567Z,23.1
2017-08-08T11:19:13.954Z,23.1
2017-08-08T11:20:15.340Z,23.1
2017-08-08T11:21:16.820Z,23.0
2017-08-08T11:22:18.242Z,22.9
2017-08-08T11:23:19.686Z,22.7
2017-08-08T11:24:21.116Z,22.6
2017-08-08T11:25:22.505Z,22.5
2017-08-08T11:26:23.907Z,22.4
2017-08-08T11:27:25.295Z,22.2
2017-08-08T11:28:26.683Z,22.0
2017-08-08T11:29:28.069Z,21.8
2017-08-08T11:30:29.496Z,21.8
2017-08-08T11:31:30.930Z,21.8
2017-08-08T11:32:32.315Z,21.7
2017-08-08T11:34:14.697Z,21.7
2017-08-08T11:35:16.084Z,21.5
2017-08-08T11:36:17.469Z,21.5
2017-08-08T11:37:18.854Z,21.5
2017-08-08T11:38:20.269Z,21.5
2017-08-08T11:39:21.660Z,21.4
2017-08-08T11:40:23.050Z,21.5
2017-08-08T11:41:24.434Z,21.4
2017-08-08T11:42:25.855Z,21.2
2017-08-08T11:43:27.246Z,21.3
2017-08-08T11:44:28.632Z,21.2
2017-08-08T11:45:30.022Z,21.3
2017-08-08T11:46:31.419Z,21.3
2017-08-08T11:47:32.800Z,21.3
2017-08-08T11:48:34.185Z,21.3
2017-08-08T11:49:35.573Z,21.4
2017-08-08T11:50:36.970Z,21.4
2017-08-08T11:51:38.390Z,21.3
2017-08-08T11:52:39.770Z,21.2
2017-08-08T11:53:41.158Z,21.2
2017-08-08T11:54:42.565Z,21.2
2017-08-08T11:56:23.919Z,21.2
2017-08-08T11:57:25.313Z,21.1
2017-08-08T11:58:26.701Z,21.1
2017-08-08T11:59:28.094Z,21.2
2017-08-08T12:00:29.473Z,21.1
2017-08-08T12:01:30.888Z,21.2
2017-08-08T12:02:32.276Z,21.2
2017-08-08T12:03:33.669Z,21.2
2017-08-08T12:04:35.069Z,21.4
2017-08-08T12:05:36.450Z,21.3
2017-08-08T12:06:37.836Z,21.4
2017-08-08T12:07:39.225Z,21.4
2017-08-08T12:09:21.600Z,21.4
2017-08-08T12:10:22.983Z,21.5
2017-08-08T12:11:24.364Z,21.5
2017-08-08T12:12:25.753Z,21.5
2017-08-08T12:13:27.142Z,21.5
2017-08-08T12:14:28.525Z,21.6
2017-08-08T12:15:29.909Z,21.5
2017-08-08T12:16:31.298Z,21.5
2017-08-08T12:17:32.683Z,21.6
2017-08-08T12:18:34.090Z,21.5
2017-08-08T12:19:35.506Z,21.5
2017-08-08T12:20:36.893Z,21.5
2017-08-08T12:21:38.282Z,21.5
2017-08-08T12:22:39.665Z,21.5
2017-08-08T12:23:41.056Z,21.4
2017-08-08T12:24:42.566Z,21.4
2017-08-08T12:26:24.899Z,21.3
2017-08-08T12:27:26.284Z,21.2
2017-08-08T12:28:27.668Z,21.2
2017-08-08T12:29:29.051Z,21.2
2017-08-08T12:30:30.476Z,21.2
2017-08-08T12:31:31.865Z,21.2
2017-08-08T12:32:33.264Z,21.3
2017-08-08T12:33:34.652Z,21.3
2017-08-08T12:34:36.037Z,21.4
2017-08-08T12:35:37.426Z,21.4
2017-08-08T12:36:38.812Z,21.3
2017-08-08T12:37:40.193Z,21.4
2017-08-08T12:38:41.586Z,21.5
2017-08-08T12:39:43.333Z,21.4
2017-08-08T12:40:44.810Z,21.6
2017-08-08T12:41:46.211Z,21.7
2017-08-08T12:42:47.596Z,21.8
2017-08-08T12:43:49.010Z,21.8
2017-08-08T12:44:50.443Z,21.8
2017-08-08T12:45:51.891Z,21.7
2017-08-08T12:46:53.698Z,21.7
2017-08-08T12:47:55.106Z,21.8
2017-08-08T12:48:56.542Z,21.8
2017-08-08T12:49:57.951Z,21.9
2017-08-08T12:50:59.386Z,21.9
2017-08-08T12:52:00.866Z,21.8
2017-08-08T12:53:02.257Z,21.8
2017-08-08T12:54:03.666Z,21.8
2017-08-08T12:55:05.048Z,21.8
2017-08-08T12:56:06.439Z,21.8
2017-08-08T12:57:07.841Z,21.7
2017-08-08T12:58:09.264Z,21.7
2017-08-08T12:59:10.803Z,21.6
2017-08-08T13:00:12.192Z,21.6
2017-08-08T13:01:13.615Z,21.6
2017-08-08T13:02:15.019Z,21.4
2017-08-08T13:03:16.429Z,21.3
2017-08-08T13:04:17.820Z,21.3
2017-08-08T13:05:19.210Z,21.2
2017-08-08T13:06:20.660Z,21.2
2017-08-08T13:07:22.111Z,21.2
2017-08-08T13:08:23.498Z,21.2
2017-08-08T13:09:24.896Z,21.1
2017-08-08T13:10:26.344Z,21.1
2017-08-08T13:11:27.726Z,21.1
2017-08-08T13:12:29.126Z,21.0
2017-08-08T13:13:30.584Z,21.0
2017-08-08T13:14:31.978Z,21.0
2017-08-08T13:15:33.388Z,21.1
2017-08-08T13:16:34.780Z,21.0
2017-08-08T13:17:36.206Z,21.1
2017-08-08T13:18:37.618Z,21.1
2017-08-08T13:19:39.008Z,21.1
2017-08-08T13:20:40.403Z,21.2
2017-08-08T13:21:41.825Z,21.2
2017-08-08T13:22:43.223Z,21.2
2017-08-08T13:23:44.618Z,21.2
2017-08-08T13:24:46.087Z,21.1
2017-08-08T13:25:47.475Z,21.1
2017-08-08T13:26:48.874Z,21.1
2017-08-08T13:27:50.279Z,20.9
2017-08-08T13:28:51.693Z,21.1
2017-08-08T13:29:53.088Z,20.9
2017-08-08T13:30:54.473Z,21.0
2017-08-08T13:31:55.943Z,21.0
2017-08-08T13:32:57.325Z,21.0
2017-08-08T13:33:58.733Z,21.0
2017-08-08T13:35:00.135Z,21.0
2017-08-08T13:36:01.523Z,21.0
2017-08-08T13:37:02.968Z,21.1
2017-08-08T13:38:04.346Z,21.1
2017-08-08T13:39:05.773Z,21.1
2017-08-08T13:40:07.177Z,21.1
2017-08-08T13:41:08.601Z,21.1
2017-08-08T13:42:10.001Z,21.1
2017-08-08T13:43:52.369Z,21.2
2017-08-08T13:44:53.751Z,21.2
2017-08-08T13:45:55.132Z,21.3
2017-08-08T13:46:56.520Z,21.4
2017-08-08T13:47:57.901Z,21.5
2017-08-08T13:48:59.285Z,21.5
2017-08-08T13:50:00.673Z,21.4
2017-08-08T13:51:02.062Z,21.5
2017-08-08T13:52:03.443Z,21.7
2017-08-08T13:53:04.829Z,21.7
2017-08-08T13:54:06.210Z,21.7
2017-08-08T13:55:07.654Z,21.8
2017-08-08T13:56:09.053Z,21.8
2017-08-08T13:57:10.516Z,21.8
2017-08-08T13:58:11.902Z,21.9
2017-08-08T13:59:13.337Z,21.8